sensor_id;sensor_type;location;lat;lon;timestamp;temperature;humidity
71142;DHT22;58808;59.366;17.970;2023-03-02T00:00:56;5.90;82.50
71142;DHT22;58808;59.366;17.970;2023-03-02T00:03:24;5.90;82.90
71142;DHT22;58808;59.366;17.970;2023-03-02T00:05:50;5.80;83.30
71142;DHT22;58808;59.366;17.970;2023-03-02T00:08:17;5.80;83.70
71142;DHT22;58808;59.366;17.970;2023-03-02T00:10:43;5.80;84.00
71142;DHT22;58808;59.366;17.970;2023-03-02T00:13:10;5.80;84.30
71142;DHT22;58808;59.366;17.970;2023-03-02T00:15:37;5.70;84.80
71142;DHT22;58808;59.366;17.970;2023-03-02T00:18:02;5.70;85.40
71142;DHT22;58808;59.366;17.970;2023-03-02T00:20:28;5.70;85.70
71142;DHT22;58808;59.366;17.970;2023-03-02T00:22:54;5.60;86.30
71142;DHT22;58808;59.366;17.970;2023-03-02T00:25:20;5.60;86.80
71142;DHT22;58808;59.366;17.970;2023-03-02T00:27:46;5.40;87.70
71142;DHT22;58808;59.366;17.970;2023-03-02T00:30:13;5.40;88.40
71142;DHT22;58808;59.366;17.970;2023-03-02T00:32:39;5.40;89.00
71142;DHT22;58808;59.366;17.970;2023-03-02T00:35:05;5.30;89.60
71142;DHT22;58808;59.366;17.970;2023-03-02T00:37:31;5.30;90.20
71142;DHT22;58808;59.366;17.970;2023-03-02T00:39:58;5.30;90.40
71142;DHT22;58808;59.366;17.970;2023-03-02T00:42:24;5.30;90.40
71142;DHT22;58808;59.366;17.970;2023-03-02T00:44:51;5.30;90.60
71142;DHT22;58808;59.366;17.970;2023-03-02T00:47:17;5.30;90.60
71142;DHT22;58808;59.366;17.970;2023-03-02T00:49:43;5.30;91.10
71142;DHT22;58808;59.366;17.970;2023-03-02T00:52:14;5.30;91.20
71142;DHT22;58808;59.366;17.970;2023-03-02T00:54:39;5.20;91.40
71142;DHT22;58808;59.366;17.970;2023-03-02T00:57:05;5.20;91.70
71142;DHT22;58808;59.366;17.970;2023-03-02T00:59:31;5.20;92.10
71142;DHT22;58808;59.366;17.970;2023-03-02T01:01:58;5.10;92.50
71142;DHT22;58808;59.366;17.970;2023-03-02T01:04:25;5.00;93.20
71142;DHT22;58808;59.366;17.970;2023-03-02T01:07:00;5.00;93.60
71142;DHT22;58808;59.366;17.970;2023-03-02T01:09:27;5.00;94.00
71142;DHT22;58808;59.366;17.970;2023-03-02T01:11:53;4.90;94.40
71142;DHT22;58808;59.366;17.970;2023-03-02T01:14:19;4.90;94.70
71142;DHT22;58808;59.366;17.970;2023-03-02T01:16:45;4.90;95.20
71142;DHT22;58808;59.366;17.970;2023-03-02T01:19:12;4.90;95.70
71142;DHT22;58808;59.366;17.970;2023-03-02T01:21:38;4.90;95.80
71142;DHT22;58808;59.366;17.970;2023-03-02T01:24:05;5.00;95.80
71142;DHT22;58808;59.366;17.970;2023-03-02T01:26:30;4.90;95.90
71142;DHT22;58808;59.366;17.970;2023-03-02T01:28:56;4.90;96.10
71142;DHT22;58808;59.366;17.970;2023-03-02T01:31:23;4.90;96.40
71142;DHT22;58808;59.366;17.970;2023-03-02T01:33:49;4.80;96.80
71142;DHT22;58808;59.366;17.970;2023-03-02T01:36:15;4.80;97.10
71142;DHT22;58808;59.366;17.970;2023-03-02T01:38:41;4.70;97.80
71142;DHT22;58808;59.366;17.970;2023-03-02T01:41:07;4.70;97.90
71142;DHT22;58808;59.366;17.970;2023-03-02T01:43:33;4.70;98.20
71142;DHT22;58808;59.366;17.970;2023-03-02T01:46:11;4.60;98.70
71142;DHT22;58808;59.366;17.970;2023-03-02T01:49:00;4.60;99.00
71142;DHT22;58808;59.366;17.970;2023-03-02T01:51:27;4.60;99.50
71142;DHT22;58808;59.366;17.970;2023-03-02T01:54:02;4.60;99.90
71142;DHT22;58808;59.366;17.970;2023-03-02T01:56:31;4.50;99.90
71142;DHT22;58808;59.366;17.970;2023-03-02T01:59:06;4.50;99.90
71142;DHT22;58808;59.366;17.970;2023-03-02T02:01:35;4.50;99.90
71142;DHT22;58808;59.366;17.970;2023-03-02T02:04:02;4.40;99.90
71142;DHT22;58808;59.366;17.970;2023-03-02T02:07:20;4.40;99.90
71142;DHT22;58808;59.366;17.970;2023-03-02T02:09:30;4.40;99.90
71142;DHT22;58808;59.366;17.970;2023-03-02T02:11:57;4.30;99.90
71142;DHT22;58808;59.366;17.970;2023-03-02T02:14:24;4.40;99.90
71142;DHT22;58808;59.366;17.970;2023-03-02T02:16:50;4.30;99.90
71142;DHT22;58808;59.366;17.970;2023-03-02T02:21:50;4.30;99.90
71142;DHT22;58808;59.366;17.970;2023-03-02T02:24:44;4.30;99.90
71142;DHT22;58808;59.366;17.970;2023-03-02T02:27:11;4.30;99.90
71142;DHT22;58808;59.366;17.970;2023-03-02T02:29:41;4.30;99.90
71142;DHT22;58808;59.366;17.970;2023-03-02T02:32:16;4.20;99.90
71142;DHT22;58808;59.366;17.970;2023-03-02T02:34:46;4.20;99.90
71142;DHT22;58808;59.366;17.970;2023-03-02T02:39:49;4.20;99.90
71142;DHT22;58808;59.366;17.970;2023-03-02T02:42:27;4.20;99.90
71142;DHT22;58808;59.366;17.970;2023-03-02T02:44:57;4.20;99.90
71142;DHT22;58808;59.366;17.970;2023-03-02T02:47:24;4.20;99.90
71142;DHT22;58808;59.366;17.970;2023-03-02T02:49:52;4.10;99.90
71142;DHT22;58808;59.366;17.970;2023-03-02T02:52:21;4.10;99.90
71142;DHT22;58808;59.366;17.970;2023-03-02T02:54:50;4.00;99.90
71142;DHT22;58808;59.366;17.970;2023-03-02T02:57:17;4.00;99.90
71142;DHT22;58808;59.366;17.970;2023-03-02T02:59:49;3.90;99.90
71142;DHT22;58808;59.366;17.970;2023-03-02T03:02:22;3.90;99.90
71142;DHT22;58808;59.366;17.970;2023-03-02T03:04:48;3.80;99.90
71142;DHT22;58808;59.366;17.970;2023-03-02T03:07:23;3.80;99.90
71142;DHT22;58808;59.366;17.970;2023-03-02T03:10:01;3.80;99.90
71142;DHT22;58808;59.366;17.970;2023-03-02T03:12:31;3.70;99.90
71142;DHT22;58808;59.366;17.970;2023-03-02T03:14:59;3.70;99.90
71142;DHT22;58808;59.366;17.970;2023-03-02T03:17:25;3.70;99.90
71142;DHT22;58808;59.366;17.970;2023-03-02T03:19:51;3.60;99.90
71142;DHT22;58808;59.366;17.970;2023-03-02T03:22:17;3.60;99.90
71142;DHT22;58808;59.366;17.970;2023-03-02T03:24:43;3.60;99.90
71142;DHT22;58808;59.366;17.970;2023-03-02T03:27:11;3.60;99.90
71142;DHT22;58808;59.366;17.970;2023-03-02T03:29:40;3.60;99.90
71142;DHT22;58808;59.366;17.970;2023-03-02T03:32:06;3.50;99.90
71142;DHT22;58808;59.366;17.970;2023-03-02T03:34:33;3.50;99.90
71142;DHT22;58808;59.366;17.970;2023-03-02T03:37:09;3.50;99.90
71142;DHT22;58808;59.366;17.970;2023-03-02T03:39:35;3.50;99.90
71142;DHT22;58808;59.366;17.970;2023-03-02T03:42:01;3.40;99.90
71142;DHT22;58808;59.366;17.970;2023-03-02T03:44:28;3.40;99.90
71142;DHT22;58808;59.366;17.970;2023-03-02T03:46:54;3.40;99.90
71142;DHT22;58808;59.366;17.970;2023-03-02T03:49:20;3.40;99.90
71142;DHT22;58808;59.366;17.970;2023-03-02T03:51:45;3.40;99.90
71142;DHT22;58808;59.366;17.970;2023-03-02T03:54:12;3.40;99.90
71142;DHT22;58808;59.366;17.970;2023-03-02T03:56:40;3.30;99.90
71142;DHT22;58808;59.366;17.970;2023-03-02T03:59:08;3.30;99.90
71142;DHT22;58808;59.366;17.970;2023-03-02T04:01:53;3.30;99.90
71142;DHT22;58808;59.366;17.970;2023-03-02T04:04:26;3.30;99.90
71142;DHT22;58808;59.366;17.970;2023-03-02T04:06:52;3.20;99.90
71142;DHT22;58808;59.366;17.970;2023-03-02T04:09:18;3.20;99.90
71142;DHT22;58808;59.366;17.970;2023-03-02T04:11:46;3.20;99.90
71142;DHT22;58808;59.366;17.970;2023-03-02T04:14:12;3.20;99.90
71142;DHT22;58808;59.366;17.970;2023-03-02T04:16:39;3.20;99.90
71142;DHT22;58808;59.366;17.970;2023-03-02T04:19:06;3.20;99.90
71142;DHT22;58808;59.366;17.970;2023-03-02T04:21:39;3.20;99.90
71142;DHT22;58808;59.366;17.970;2023-03-02T04:24:05;3.10;99.90
71142;DHT22;58808;59.366;17.970;2023-03-02T04:26:32;3.10;99.90
71142;DHT22;58808;59.366;17.970;2023-03-02T04:28:58;3.10;99.90
71142;DHT22;58808;59.366;17.970;2023-03-02T04:31:24;3.00;99.90
71142;DHT22;58808;59.366;17.970;2023-03-02T04:33:50;3.00;99.90
71142;DHT22;58808;59.366;17.970;2023-03-02T04:36:16;3.00;99.90
71142;DHT22;58808;59.366;17.970;2023-03-02T04:38:44;2.90;99.90
71142;DHT22;58808;59.366;17.970;2023-03-02T04:41:10;3.00;99.90
71142;DHT22;58808;59.366;17.970;2023-03-02T04:43:35;3.00;99.90
71142;DHT22;58808;59.366;17.970;2023-03-02T04:46:01;2.90;99.90
71142;DHT22;58808;59.366;17.970;2023-03-02T04:48:27;2.90;99.90
71142;DHT22;58808;59.366;17.970;2023-03-02T04:50:53;2.90;99.90
71142;DHT22;58808;59.366;17.970;2023-03-02T04:53:19;2.80;99.90
71142;DHT22;58808;59.366;17.970;2023-03-02T04:55:45;2.80;99.90
71142;DHT22;58808;59.366;17.970;2023-03-02T04:58:11;2.80;99.90
71142;DHT22;58808;59.366;17.970;2023-03-02T05:00:37;2.80;99.90
71142;DHT22;58808;59.366;17.970;2023-03-02T05:03:04;2.70;99.90
71142;DHT22;58808;59.366;17.970;2023-03-02T05:05:30;2.70;99.90
71142;DHT22;58808;59.366;17.970;2023-03-02T05:07:56;2.70;99.90
71142;DHT22;58808;59.366;17.970;2023-03-02T05:10:23;2.70;99.90
71142;DHT22;58808;59.366;17.970;2023-03-02T05:12:50;2.70;99.90
71142;DHT22;58808;59.366;17.970;2023-03-02T05:15:32;2.70;99.90
71142;DHT22;58808;59.366;17.970;2023-03-02T05:17:58;2.70;99.90
71142;DHT22;58808;59.366;17.970;2023-03-02T05:20:25;2.70;99.90
71142;DHT22;58808;59.366;17.970;2023-03-02T05:23:00;2.70;99.90
71142;DHT22;58808;59.366;17.970;2023-03-02T05:25:29;2.60;99.90
71142;DHT22;58808;59.366;17.970;2023-03-02T05:27:55;2.60;99.90
71142;DHT22;58808;59.366;17.970;2023-03-02T05:30:21;2.70;99.90
71142;DHT22;58808;59.366;17.970;2023-03-02T05:32:48;2.60;99.90
71142;DHT22;58808;59.366;17.970;2023-03-02T05:35:14;2.60;99.90
71142;DHT22;58808;59.366;17.970;2023-03-02T05:37:40;2.50;99.90
71142;DHT22;58808;59.366;17.970;2023-03-02T05:40:11;2.50;99.90
71142;DHT22;58808;59.366;17.970;2023-03-02T05:42:37;2.50;99.90
71142;DHT22;58808;59.366;17.970;2023-03-02T05:45:04;2.50;99.90
71142;DHT22;58808;59.366;17.970;2023-03-02T05:47:30;2.50;99.90
71142;DHT22;58808;59.366;17.970;2023-03-02T05:49:56;2.50;99.90
71142;DHT22;58808;59.366;17.970;2023-03-02T05:52:24;2.50;99.90
71142;DHT22;58808;59.366;17.970;2023-03-02T05:54:50;2.40;99.90
71142;DHT22;58808;59.366;17.970;2023-03-02T05:57:16;2.40;99.90
71142;DHT22;58808;59.366;17.970;2023-03-02T05:59:41;2.40;99.90
71142;DHT22;58808;59.366;17.970;2023-03-02T06:02:07;2.40;99.90
71142;DHT22;58808;59.366;17.970;2023-03-02T06:04:33;2.40;99.90
71142;DHT22;58808;59.366;17.970;2023-03-02T06:06:58;2.40;99.90
71142;DHT22;58808;59.366;17.970;2023-03-02T06:09:24;2.40;99.90
71142;DHT22;58808;59.366;17.970;2023-03-02T06:11:50;2.40;99.90
71142;DHT22;58808;59.366;17.970;2023-03-02T06:14:16;2.40;99.90
71142;DHT22;58808;59.366;17.970;2023-03-02T06:16:41;2.30;99.90
71142;DHT22;58808;59.366;17.970;2023-03-02T06:19:07;2.30;99.90
71142;DHT22;58808;59.366;17.970;2023-03-02T06:21:33;2.30;99.90
71142;DHT22;58808;59.366;17.970;2023-03-02T06:23:58;2.30;99.90
71142;DHT22;58808;59.366;17.970;2023-03-02T06:26:24;2.20;99.90
71142;DHT22;58808;59.366;17.970;2023-03-02T06:28:50;2.20;99.90
71142;DHT22;58808;59.366;17.970;2023-03-02T06:31:15;2.20;99.90
71142;DHT22;58808;59.366;17.970;2023-03-02T06:33:41;2.20;99.90
71142;DHT22;58808;59.366;17.970;2023-03-02T06:36:07;2.20;99.90
71142;DHT22;58808;59.366;17.970;2023-03-02T06:38:32;2.20;99.90
71142;DHT22;58808;59.366;17.970;2023-03-02T06:40:58;2.20;99.90
71142;DHT22;58808;59.366;17.970;2023-03-02T06:43:24;2.30;99.90
71142;DHT22;58808;59.366;17.970;2023-03-02T06:45:50;2.30;99.90
71142;DHT22;58808;59.366;17.970;2023-03-02T06:48:16;2.20;99.90
71142;DHT22;58808;59.366;17.970;2023-03-02T06:50:42;2.30;99.90
71142;DHT22;58808;59.366;17.970;2023-03-02T06:53:07;2.30;99.90
71142;DHT22;58808;59.366;17.970;2023-03-02T06:55:33;2.20;99.90
71142;DHT22;58808;59.366;17.970;2023-03-02T06:57:59;2.20;99.90
71142;DHT22;58808;59.366;17.970;2023-03-02T07:00:25;2.20;99.90
71142;DHT22;58808;59.366;17.970;2023-03-02T07:02:53;2.20;99.90
71142;DHT22;58808;59.366;17.970;2023-03-02T07:05:20;2.30;99.90
71142;DHT22;58808;59.366;17.970;2023-03-02T07:07:46;2.20;99.90
71142;DHT22;58808;59.366;17.970;2023-03-02T07:10:12;2.30;99.90
71142;DHT22;58808;59.366;17.970;2023-03-02T07:12:39;2.30;99.90
71142;DHT22;58808;59.366;17.970;2023-03-02T07:15:05;2.40;99.90
71142;DHT22;58808;59.366;17.970;2023-03-02T07:17:36;2.40;99.90
71142;DHT22;58808;59.366;17.970;2023-03-02T07:20:05;2.40;99.90
71142;DHT22;58808;59.366;17.970;2023-03-02T07:22:31;2.50;99.90
71142;DHT22;58808;59.366;17.970;2023-03-02T07:24:57;2.60;99.90
71142;DHT22;58808;59.366;17.970;2023-03-02T07:27:22;2.60;99.90
71142;DHT22;58808;59.366;17.970;2023-03-02T07:29:48;2.60;99.90
71142;DHT22;58808;59.366;17.970;2023-03-02T07:32:14;2.70;99.90
71142;DHT22;58808;59.366;17.970;2023-03-02T07:34:40;2.90;99.90
71142;DHT22;58808;59.366;17.970;2023-03-02T07:37:05;3.10;99.90
71142;DHT22;58808;59.366;17.970;2023-03-02T07:39:31;3.20;99.90
71142;DHT22;58808;59.366;17.970;2023-03-02T07:41:58;3.30;99.90
71142;DHT22;58808;59.366;17.970;2023-03-02T07:44:25;3.40;99.90
71142;DHT22;58808;59.366;17.970;2023-03-02T07:46:51;3.30;99.90
71142;DHT22;58808;59.366;17.970;2023-03-02T07:49:17;3.20;99.90
71142;DHT22;58808;59.366;17.970;2023-03-02T07:51:42;3.20;99.90
71142;DHT22;58808;59.366;17.970;2023-03-02T07:54:09;3.20;99.90
71142;DHT22;58808;59.366;17.970;2023-03-02T07:56:34;3.30;99.90
71142;DHT22;58808;59.366;17.970;2023-03-02T07:59:01;3.40;99.90
71142;DHT22;58808;59.366;17.970;2023-03-02T08:01:26;3.50;99.90
71142;DHT22;58808;59.366;17.970;2023-03-02T08:03:52;3.60;99.90
71142;DHT22;58808;59.366;17.970;2023-03-02T08:06:18;3.70;99.90
71142;DHT22;58808;59.366;17.970;2023-03-02T08:08:44;3.70;99.90
71142;DHT22;58808;59.366;17.970;2023-03-02T08:11:12;3.80;99.90
71142;DHT22;58808;59.366;17.970;2023-03-02T08:13:39;3.90;98.80
71142;DHT22;58808;59.366;17.970;2023-03-02T08:16:06;3.90;96.50
71142;DHT22;58808;59.366;17.970;2023-03-02T08:18:33;4.00;95.50
71142;DHT22;58808;59.366;17.970;2023-03-02T08:20:59;4.20;94.90
71142;DHT22;58808;59.366;17.970;2023-03-02T08:23:25;4.20;93.90
71142;DHT22;58808;59.366;17.970;2023-03-02T08:25:52;4.30;93.40
71142;DHT22;58808;59.366;17.970;2023-03-02T08:28:19;4.40;93.00
71142;DHT22;58808;59.366;17.970;2023-03-02T08:30:54;4.40;90.70
71142;DHT22;58808;59.366;17.970;2023-03-02T08:33:21;4.40;90.50
71142;DHT22;58808;59.366;17.970;2023-03-02T08:35:57;4.50;89.30
71142;DHT22;58808;59.366;17.970;2023-03-02T08:38:24;4.60;89.20
71142;DHT22;58808;59.366;17.970;2023-03-02T08:40:51;4.50;88.70
71142;DHT22;58808;59.366;17.970;2023-03-02T08:43:19;4.60;88.30
71142;DHT22;58808;59.366;17.970;2023-03-02T08:45:53;4.70;85.90
71142;DHT22;58808;59.366;17.970;2023-03-02T08:48:20;4.80;84.70
71142;DHT22;58808;59.366;17.970;2023-03-02T08:51:01;4.90;81.80
71142;DHT22;58808;59.366;17.970;2023-03-02T08:53:30;5.00;82.30
71142;DHT22;58808;59.366;17.970;2023-03-02T08:55:56;5.10;80.20
71142;DHT22;58808;59.366;17.970;2023-03-02T08:58:22;5.10;78.20
71142;DHT22;58808;59.366;17.970;2023-03-02T09:00:48;5.20;78.30
71142;DHT22;58808;59.366;17.970;2023-03-02T09:03:14;5.20;77.30
71142;DHT22;58808;59.366;17.970;2023-03-02T09:05:40;5.30;74.70
71142;DHT22;58808;59.366;17.970;2023-03-02T09:08:06;5.30;75.50
71142;DHT22;58808;59.366;17.970;2023-03-02T09:10:33;5.30;75.70
71142;DHT22;58808;59.366;17.970;2023-03-02T09:12:58;5.30;74.20
71142;DHT22;58808;59.366;17.970;2023-03-02T09:15:24;5.30;76.30
71142;DHT22;58808;59.366;17.970;2023-03-02T09:17:50;5.30;76.20
71142;DHT22;58808;59.366;17.970;2023-03-02T09:20:16;5.40;76.30
71142;DHT22;58808;59.366;17.970;2023-03-02T09:22:41;5.50;74.10
71142;DHT22;58808;59.366;17.970;2023-03-02T09:25:13;5.50;74.10
71142;DHT22;58808;59.366;17.970;2023-03-02T09:27:40;5.60;72.80
71142;DHT22;58808;59.366;17.970;2023-03-02T09:30:07;5.70;73.20
71142;DHT22;58808;59.366;17.970;2023-03-02T09:32:33;5.80;73.40
71142;DHT22;58808;59.366;17.970;2023-03-02T09:34:59;5.70;72.30
71142;DHT22;58808;59.366;17.970;2023-03-02T09:37:26;5.90;72.40
71142;DHT22;58808;59.366;17.970;2023-03-02T09:39:52;6.00;71.40
71142;DHT22;58808;59.366;17.970;2023-03-02T09:45:18;6.10;69.20
71142;DHT22;58808;59.366;17.970;2023-03-02T09:50:33;6.10;66.80
71142;DHT22;58808;59.366;17.970;2023-03-02T09:55:32;6.10;67.00
71142;DHT22;58808;59.366;17.970;2023-03-02T09:58:11;6.20;66.30
71142;DHT22;58808;59.366;17.970;2023-03-02T10:00:40;6.40;65.70
71142;DHT22;58808;59.366;17.970;2023-03-02T10:05:45;6.80;63.80
71142;DHT22;58808;59.366;17.970;2023-03-02T10:13:51;6.50;63.10
71142;DHT22;58808;59.366;17.970;2023-03-02T10:16:33;6.50;62.60
71142;DHT22;58808;59.366;17.970;2023-03-02T10:19:43;6.40;61.50
71142;DHT22;58808;59.366;17.970;2023-03-02T10:22:17;6.60;63.30
71142;DHT22;58808;59.366;17.970;2023-03-02T10:24:56;6.90;61.80
71142;DHT22;58808;59.366;17.970;2023-03-02T10:27:33;7.10;58.80
71142;DHT22;58808;59.366;17.970;2023-03-02T10:32:47;7.40;57.40
71142;DHT22;58808;59.366;17.970;2023-03-02T10:35:17;7.40;58.40
71142;DHT22;58808;59.366;17.970;2023-03-02T10:37:45;7.60;56.60
71142;DHT22;58808;59.366;17.970;2023-03-02T10:42:59;7.70;54.90
71142;DHT22;58808;59.366;17.970;2023-03-02T10:45:28;7.70;55.40
71142;DHT22;58808;59.366;17.970;2023-03-02T10:48:08;7.80;55.40
71142;DHT22;58808;59.366;17.970;2023-03-02T10:50:35;7.90;54.00
71142;DHT22;58808;59.366;17.970;2023-03-02T10:53:02;8.00;52.20
71142;DHT22;58808;59.366;17.970;2023-03-02T10:55:32;8.00;53.40
71142;DHT22;58808;59.366;17.970;2023-03-02T10:58:02;7.80;54.40
71142;DHT22;58808;59.366;17.970;2023-03-02T11:00:30;7.60;53.70
71142;DHT22;58808;59.366;17.970;2023-03-02T11:02:59;7.60;53.60
71142;DHT22;58808;59.366;17.970;2023-03-02T11:05:29;7.50;54.10
71142;DHT22;58808;59.366;17.970;2023-03-02T11:08:36;7.40;53.80
71142;DHT22;58808;59.366;17.970;2023-03-02T11:10:59;7.50;53.70
71142;DHT22;58808;59.366;17.970;2023-03-02T11:13:33;7.60;54.20
71142;DHT22;58808;59.366;17.970;2023-03-02T11:18:58;7.80;53.30
71142;DHT22;58808;59.366;17.970;2023-03-02T11:22:22;7.90;52.90
71142;DHT22;58808;59.366;17.970;2023-03-02T11:24:23;7.80;52.40
71142;DHT22;58808;59.366;17.970;2023-03-02T11:27:01;7.80;52.70
71142;DHT22;58808;59.366;17.970;2023-03-02T11:29:44;8.00;51.70
71142;DHT22;58808;59.366;17.970;2023-03-02T11:35:12;8.00;51.10
71142;DHT22;58808;59.366;17.970;2023-03-02T11:42:55;7.50;51.70
71142;DHT22;58808;59.366;17.970;2023-03-02T11:45:45;7.50;51.40
71142;DHT22;58808;59.366;17.970;2023-03-02T11:48:23;7.50;51.30
71142;DHT22;58808;59.366;17.970;2023-03-02T11:50:55;7.50;50.90
71142;DHT22;58808;59.366;17.970;2023-03-02T11:53:32;7.50;51.00
71142;DHT22;58808;59.366;17.970;2023-03-02T11:56:01;7.60;51.10
71142;DHT22;58808;59.366;17.970;2023-03-02T11:58:28;7.60;50.60
71142;DHT22;58808;59.366;17.970;2023-03-02T12:00:55;7.70;49.50
71142;DHT22;58808;59.366;17.970;2023-03-02T12:06:01;7.90;49.20
71142;DHT22;58808;59.366;17.970;2023-03-02T12:18:49;8.10;46.40
71142;DHT22;58808;59.366;17.970;2023-03-02T12:21:20;8.10;46.30
71142;DHT22;58808;59.366;17.970;2023-03-02T12:31:51;8.40;45.10
71142;DHT22;58808;59.366;17.970;2023-03-02T12:36:50;8.70;43.70
71142;DHT22;58808;59.366;17.970;2023-03-02T12:47:55;9.20;42.00
71142;DHT22;58808;59.366;17.970;2023-03-02T12:50:25;9.20;42.00
71142;DHT22;58808;59.366;17.970;2023-03-02T12:52:59;9.30;41.50
71142;DHT22;58808;59.366;17.970;2023-03-02T12:55:25;9.40;41.00
71142;DHT22;58808;59.366;17.970;2023-03-02T12:57:55;9.50;40.50
71142;DHT22;58808;59.366;17.970;2023-03-02T13:00:23;9.70;40.20
71142;DHT22;58808;59.366;17.970;2023-03-02T13:02:52;9.80;40.20
71142;DHT22;58808;59.366;17.970;2023-03-02T13:05:27;9.90;40.30
71142;DHT22;58808;59.366;17.970;2023-03-02T13:07:57;10.10;40.00
71142;DHT22;58808;59.366;17.970;2023-03-02T13:10:34;10.10;39.50
71142;DHT22;58808;59.366;17.970;2023-03-02T13:13:02;10.10;38.80
71142;DHT22;58808;59.366;17.970;2023-03-02T13:15:29;10.10;38.80
71142;DHT22;58808;59.366;17.970;2023-03-02T13:17:58;10.00;38.60
71142;DHT22;58808;59.366;17.970;2023-03-02T13:20:27;10.00;38.70
71142;DHT22;58808;59.366;17.970;2023-03-02T13:22:53;10.00;39.30
71142;DHT22;58808;59.366;17.970;2023-03-02T13:25:24;10.10;38.60
71142;DHT22;58808;59.366;17.970;2023-03-02T13:27:56;10.20;38.60
71142;DHT22;58808;59.366;17.970;2023-03-02T13:30:30;10.20;38.10
71142;DHT22;58808;59.366;17.970;2023-03-02T13:33:22;10.10;38.70
71142;DHT22;58808;59.366;17.970;2023-03-02T13:35:49;10.00;39.10
71142;DHT22;58808;59.366;17.970;2023-03-02T13:38:17;9.90;38.90
71142;DHT22;58808;59.366;17.970;2023-03-02T13:40:44;9.80;39.00
71142;DHT22;58808;59.366;17.970;2023-03-02T13:48:36;9.70;39.80
71142;DHT22;58808;59.366;17.970;2023-03-02T13:51:16;9.60;40.00
71142;DHT22;58808;59.366;17.970;2023-03-02T13:53:53;9.50;40.70
71142;DHT22;58808;59.366;17.970;2023-03-02T13:56:34;9.50;40.70
71142;DHT22;58808;59.366;17.970;2023-03-02T13:59:13;9.50;40.70
71142;DHT22;58808;59.366;17.970;2023-03-02T14:01:39;9.40;41.00
71142;DHT22;58808;59.366;17.970;2023-03-02T14:04:15;9.40;41.20
71142;DHT22;58808;59.366;17.970;2023-03-02T14:06:46;9.40;41.60
71142;DHT22;58808;59.366;17.970;2023-03-02T14:09:12;9.40;41.80
71142;DHT22;58808;59.366;17.970;2023-03-02T14:11:41;9.30;42.20
71142;DHT22;58808;59.366;17.970;2023-03-02T14:14:15;9.30;42.00
71142;DHT22;58808;59.366;17.970;2023-03-02T14:16:41;9.30;42.10
71142;DHT22;58808;59.366;17.970;2023-03-02T14:19:12;9.20;42.40
71142;DHT22;58808;59.366;17.970;2023-03-02T14:21:38;9.20;42.80
71142;DHT22;58808;59.366;17.970;2023-03-02T14:24:04;9.20;43.00
71142;DHT22;58808;59.366;17.970;2023-03-02T14:26:46;9.20;43.10
71142;DHT22;58808;59.366;17.970;2023-03-02T14:29:29;9.20;42.90
71142;DHT22;58808;59.366;17.970;2023-03-02T14:31:57;9.10;43.50
71142;DHT22;58808;59.366;17.970;2023-03-02T14:34:28;9.10;43.80
71142;DHT22;58808;59.366;17.970;2023-03-02T14:36:55;9.10;43.50
71142;DHT22;58808;59.366;17.970;2023-03-02T14:39:37;9.00;44.10
71142;DHT22;58808;59.366;17.970;2023-03-02T14:42:04;9.00;44.00
71142;DHT22;58808;59.366;17.970;2023-03-02T14:44:30;9.00;44.00
71142;DHT22;58808;59.366;17.970;2023-03-02T14:46:56;9.00;44.40
71142;DHT22;58808;59.366;17.970;2023-03-02T14:49:23;9.00;44.70
71142;DHT22;58808;59.366;17.970;2023-03-02T14:54:36;8.90;45.50
71142;DHT22;58808;59.366;17.970;2023-03-02T14:57:02;8.90;45.40
71142;DHT22;58808;59.366;17.970;2023-03-02T14:59:30;8.80;45.70
71142;DHT22;58808;59.366;17.970;2023-03-02T15:01:56;8.80;46.50
71142;DHT22;58808;59.366;17.970;2023-03-02T15:04:22;8.80;46.60
71142;DHT22;58808;59.366;17.970;2023-03-02T15:06:48;8.70;46.70
71142;DHT22;58808;59.366;17.970;2023-03-02T15:09:14;8.70;46.80
71142;DHT22;58808;59.366;17.970;2023-03-02T15:11:40;8.70;47.50
71142;DHT22;58808;59.366;17.970;2023-03-02T15:14:05;8.60;47.30
71142;DHT22;58808;59.366;17.970;2023-03-02T15:16:31;8.50;47.80
71142;DHT22;58808;59.366;17.970;2023-03-02T15:18:57;8.40;48.10
71142;DHT22;58808;59.366;17.970;2023-03-02T15:21:23;8.40;48.60
71142;DHT22;58808;59.366;17.970;2023-03-02T15:23:49;8.30;48.70
71142;DHT22;58808;59.366;17.970;2023-03-02T15:26:16;8.20;49.40
71142;DHT22;58808;59.366;17.970;2023-03-02T15:28:42;8.10;49.60
71142;DHT22;58808;59.366;17.970;2023-03-02T15:31:14;8.10;49.50
71142;DHT22;58808;59.366;17.970;2023-03-02T15:33:41;8.10;49.40
71142;DHT22;58808;59.366;17.970;2023-03-02T15:36:09;8.00;49.70
71142;DHT22;58808;59.366;17.970;2023-03-02T15:38:35;8.00;50.00
71142;DHT22;58808;59.366;17.970;2023-03-02T15:41:06;8.00;50.10
71142;DHT22;58808;59.366;17.970;2023-03-02T15:43:32;8.00;50.00
71142;DHT22;58808;59.366;17.970;2023-03-02T15:45:58;8.00;50.30
71142;DHT22;58808;59.366;17.970;2023-03-02T15:48:24;8.00;50.70
71142;DHT22;58808;59.366;17.970;2023-03-02T15:51:02;8.00;50.60
71142;DHT22;58808;59.366;17.970;2023-03-02T15:53:29;8.00;50.60
71142;DHT22;58808;59.366;17.970;2023-03-02T15:55:55;8.00;50.60
71142;DHT22;58808;59.366;17.970;2023-03-02T15:58:21;8.00;50.70
71142;DHT22;58808;59.366;17.970;2023-03-02T16:00:48;7.90;50.90
71142;DHT22;58808;59.366;17.970;2023-03-02T16:03:14;7.90;51.00
71142;DHT22;58808;59.366;17.970;2023-03-02T16:05:40;7.90;51.20
71142;DHT22;58808;59.366;17.970;2023-03-02T16:08:06;7.80;51.30
71142;DHT22;58808;59.366;17.970;2023-03-02T16:10:31;7.80;51.60
71142;DHT22;58808;59.366;17.970;2023-03-02T16:13:03;7.80;51.50
71142;DHT22;58808;59.366;17.970;2023-03-02T16:15:30;7.80;51.80
71142;DHT22;58808;59.366;17.970;2023-03-02T16:17:56;7.70;52.10
71142;DHT22;58808;59.366;17.970;2023-03-02T16:20:21;7.70;52.50
71142;DHT22;58808;59.366;17.970;2023-03-02T16:22:47;7.70;52.70
71142;DHT22;58808;59.366;17.970;2023-03-02T16:25:13;7.70;52.90
71142;DHT22;58808;59.366;17.970;2023-03-02T16:27:39;7.60;53.10
71142;DHT22;58808;59.366;17.970;2023-03-02T16:30:05;7.60;53.40
71142;DHT22;58808;59.366;17.970;2023-03-02T16:32:31;7.60;53.70
71142;DHT22;58808;59.366;17.970;2023-03-02T16:34:58;7.50;53.80
71142;DHT22;58808;59.366;17.970;2023-03-02T16:37:24;7.50;54.10
71142;DHT22;58808;59.366;17.970;2023-03-02T16:39:49;7.50;54.30
71142;DHT22;58808;59.366;17.970;2023-03-02T16:42:15;7.50;54.60
71142;DHT22;58808;59.366;17.970;2023-03-02T16:44:42;7.40;55.00
71142;DHT22;58808;59.366;17.970;2023-03-02T16:47:10;7.40;55.00
71142;DHT22;58808;59.366;17.970;2023-03-02T16:49:36;7.40;55.40
71142;DHT22;58808;59.366;17.970;2023-03-02T16:52:01;7.40;55.40
71142;DHT22;58808;59.366;17.970;2023-03-02T16:54:27;7.30;55.60
71142;DHT22;58808;59.366;17.970;2023-03-02T16:56:53;7.30;55.70